createdAt,value
2022-12-01T00:00:06.898Z,53.27
2022-12-01T00:02:33.401Z,53.46
2022-12-01T04:08:16.446Z,52.98
2022-12-01T04:10:42.833Z,53.18
2022-12-01T04:13:09.225Z,52.98
2022-12-01T04:15:35.605Z,53.00
2022-12-01T04:18:01.989Z,53.02
2022-12-01T04:20:28.359Z,53.01
2022-12-01T04:22:54.733Z,53.04
2022-12-01T04:25:21.091Z,53.00
2022-12-01T04:27:47.471Z,53.16
2022-12-01T04:30:13.849Z,53.06
2022-12-01T04:32:40.248Z,52.97
2022-12-01T04:35:06.619Z,53.07
2022-12-01T04:37:32.995Z,52.97
2022-12-01T04:39:59.379Z,53.08
2022-12-01T04:42:25.751Z,53.06
2022-12-01T04:44:52.111Z,52.99
2022-12-01T04:47:18.473Z,52.99
2022-12-01T04:49:44.859Z,53.09
2022-12-01T04:52:11.243Z,53.17
2022-12-01T04:54:37.613Z,53.18
2022-12-01T04:57:03.999Z,53.03
2022-12-01T04:59:30.372Z,52.81
2022-12-01T05:01:56.860Z,53.08
2022-12-01T05:04:23.265Z,53.11
2022-12-01T05:06:49.646Z,53.19
2022-12-01T05:09:17.823Z,52.89
2022-12-01T05:11:44.414Z,52.81
2022-12-01T05:14:10.797Z,52.96
2022-12-01T05:16:37.203Z,52.91
2022-12-01T05:19:03.645Z,52.89
2022-12-01T05:21:30.038Z,52.86
2022-12-01T05:23:56.409Z,52.97
2022-12-01T05:26:22.775Z,53.01
2022-12-01T05:28:49.139Z,52.91
2022-12-01T05:31:15.555Z,52.81
2022-12-01T05:33:41.982Z,53.00
2022-12-01T05:36:08.378Z,53.02
2022-12-01T05:38:34.739Z,53.13
2022-12-01T05:41:01.088Z,52.94
2022-12-01T05:43:29.549Z,53.17
2022-12-01T05:45:56.132Z,53.02
2022-12-01T05:48:22.554Z,53.08
2022-12-01T05:50:48.906Z,53.07
2022-12-01T05:53:15.350Z,52.81
2022-12-01T05:55:41.719Z,52.81
2022-12-01T05:58:08.118Z,52.96
2022-12-01T06:00:34.480Z,53.11
2022-12-01T06:03:00.840Z,53.09
2022-12-01T06:05:27.195Z,53.09
2022-12-01T06:07:53.597Z,52.96
2022-12-01T06:10:19.997Z,52.99
2022-12-01T06:12:46.346Z,53.06
2022-12-01T06:15:12.717Z,52.81
2022-12-01T06:17:40.516Z,53.05
2022-12-01T06:20:07.085Z,52.99
2022-12-01T06:22:33.453Z,52.89
2022-12-01T06:24:59.814Z,53.01
2022-12-01T06:27:26.191Z,52.93
2022-12-01T06:29:53.073Z,53.08
2022-12-01T06:32:19.731Z,52.95
2022-12-01T06:34:46.102Z,52.97
2022-12-01T06:37:12.487Z,53.07
2022-12-01T06:39:38.877Z,53.21
2022-12-01T06:42:05.274Z,53.05
2022-12-01T06:44:31.647Z,53.07
2022-12-01T06:46:58.014Z,52.80
2022-12-01T06:49:24.388Z,53.00
2022-12-01T06:51:50.761Z,53.11
2022-12-01T06:54:17.125Z,53.01
2022-12-01T06:56:43.500Z,53.08
2022-12-01T06:59:10.068Z,53.10
2022-12-01T07:01:36.746Z,52.80
2022-12-01T07:04:03.193Z,51.88
2022-12-01T07:06:29.570Z,51.34
2022-12-01T07:08:55.940Z,51.23
2022-12-01T07:11:22.319Z,51.51
2022-12-01T07:13:48.701Z,51.50
2022-12-01T07:16:15.095Z,51.74
2022-12-01T07:18:41.487Z,51.75
2022-12-01T07:21:07.854Z,51.69
2022-12-01T07:23:34.240Z,51.85
2022-12-01T07:26:00.600Z,51.75
2022-12-01T07:28:26.982Z,51.62
2022-12-01T07:30:53.375Z,51.64
2022-12-01T07:33:19.756Z,51.71
2022-12-01T07:35:46.118Z,51.81
2022-12-01T07:38:13.311Z,51.64
2022-12-01T07:40:41.923Z,51.71
2022-12-01T07:43:08.310Z,51.66
2022-12-01T07:45:34.683Z,51.52
2022-12-01T07:48:01.074Z,51.67
2022-12-01T07:50:27.465Z,51.54
2022-12-01T07:52:53.834Z,51.43
2022-12-01T07:55:20.220Z,51.95
2022-12-01T07:57:46.580Z,51.68
2022-12-01T08:00:12.950Z,51.71
2022-12-01T08:02:39.381Z,51.90
2022-12-01T08:05:05.783Z,51.78
2022-12-01T08:07:32.252Z,51.89
2022-12-01T08:09:58.767Z,51.83
2022-12-01T08:12:25.205Z,51.55
2022-12-01T08:14:51.650Z,51.51
2022-12-01T08:17:18.047Z,51.59
2022-12-01T08:19:44.463Z,51.71
2022-12-01T08:22:11.208Z,51.65
2022-12-01T08:24:37.780Z,51.80
2022-12-01T08:27:04.246Z,51.75
2022-12-01T08:29:30.687Z,51.51
2022-12-01T08:31:57.113Z,51.46
2022-12-01T08:34:23.550Z,51.62
2022-12-01T08:36:49.985Z,51.48
2022-12-01T08:39:16.434Z,51.43
2022-12-01T08:41:42.867Z,51.66
2022-12-01T08:44:09.383Z,51.52
2022-12-01T08:46:36.056Z,51.63
2022-12-01T08:49:02.596Z,51.38
2022-12-01T08:51:29.021Z,51.54
2022-12-01T08:53:55.432Z,51.39
2022-12-01T08:56:21.818Z,51.57
2022-12-01T08:58:48.186Z,51.63
2022-12-01T09:01:14.547Z,51.41
2022-12-01T09:03:40.919Z,51.44
2022-12-01T09:06:07.278Z,51.40
2022-12-01T09:08:33.637Z,51.25
2022-12-01T09:11:00.018Z,51.38
2022-12-01T09:13:26.389Z,51.30
2022-12-01T09:15:52.824Z,51.23
2022-12-01T09:18:19.251Z,51.12
2022-12-01T09:20:45.626Z,51.22
2022-12-01T09:23:12.014Z,51.30
2022-12-01T09:25:38.409Z,51.28
2022-12-01T09:28:04.789Z,51.37
2022-12-01T09:30:31.167Z,51.31
2022-12-01T09:32:57.543Z,51.27
2022-12-01T09:35:23.914Z,51.44
2022-12-01T09:37:50.305Z,51.18
2022-12-01T09:40:16.706Z,51.06
2022-12-01T09:42:43.067Z,50.87
2022-12-01T09:45:09.420Z,50.86
2022-12-01T09:47:35.812Z,51.06
2022-12-01T09:50:02.200Z,51.15
2022-12-01T09:52:28.579Z,50.79
2022-12-01T09:54:54.970Z,50.91
2022-12-01T09:57:21.353Z,50.82
2022-12-01T09:59:48.060Z,50.92
2022-12-01T10:02:14.677Z,50.90
2022-12-01T10:04:41.077Z,50.60
2022-12-01T10:07:07.451Z,50.74
2022-12-01T10:09:33.823Z,50.60
2022-12-01T10:12:00.193Z,50.78
2022-12-01T10:14:26.570Z,50.55
2022-12-01T10:16:52.940Z,50.80
2022-12-01T10:19:19.298Z,50.79
2022-12-01T10:21:45.673Z,51.00
2022-12-01T10:24:12.047Z,50.97
2022-12-01T10:26:38.431Z,50.60
2022-12-01T10:29:04.822Z,50.74
2022-12-01T10:31:31.255Z,50.77
2022-12-01T10:33:57.659Z,50.80
2022-12-01T10:36:24.055Z,50.62
2022-12-01T10:38:50.451Z,50.65
2022-12-01T10:41:16.845Z,50.77
2022-12-01T10:43:43.221Z,50.35
2022-12-01T10:46:09.658Z,50.80
2022-12-01T10:48:36.076Z,50.68
2022-12-01T10:51:02.454Z,50.68
2022-12-01T10:53:28.847Z,50.47
2022-12-01T10:55:55.238Z,50.49
2022-12-01T10:58:21.618Z,50.59
2022-12-01T11:01:03.519Z,50.44
2022-12-01T11:03:30.309Z,49.45
2022-12-01T11:05:56.923Z,48.73
2022-12-01T11:08:23.306Z,48.76
2022-12-01T11:10:49.680Z,49.01
2022-12-01T11:13:16.065Z,49.02
2022-12-01T11:15:42.455Z,49.21
2022-12-01T11:18:08.847Z,49.11
2022-12-01T11:20:35.267Z,49.44
2022-12-01T11:23:01.703Z,49.29
2022-12-01T11:25:28.083Z,49.44
2022-12-01T11:27:54.519Z,49.45
2022-12-01T11:30:20.900Z,49.31
2022-12-01T11:32:47.296Z,49.30
2022-12-01T11:35:13.673Z,49.38
2022-12-01T11:37:41.910Z,49.37
2022-12-01T11:40:08.428Z,49.35
2022-12-01T11:42:34.820Z,49.39
2022-12-01T11:45:01.199Z,49.25
2022-12-01T11:47:27.582Z,49.46
2022-12-01T11:49:54.114Z,49.29
2022-12-01T11:52:20.500Z,49.34
2022-12-01T11:54:46.903Z,49.34
2022-12-01T11:57:33.854Z,49.15
2022-12-01T11:59:59.647Z,49.29
2022-12-01T12:02:26.058Z,49.35
2022-12-01T12:04:52.451Z,49.35
2022-12-01T12:07:18.959Z,49.31
2022-12-01T12:09:45.430Z,49.16
2022-12-01T12:12:11.839Z,49.41
2022-12-01T12:14:38.230Z,49.21
2022-12-01T12:17:04.631Z,49.52
2022-12-01T12:19:34.329Z,49.36
2022-12-01T12:22:11.799Z,49.34
2022-12-01T12:24:38.188Z,49.23
2022-12-01T12:27:04.565Z,49.02
2022-12-01T12:29:30.944Z,49.24
2022-12-01T12:31:57.319Z,49.55
2022-12-01T12:34:23.709Z,49.05
2022-12-01T12:36:50.149Z,49.08
2022-12-01T12:39:17.130Z,49.22
2022-12-01T12:41:43.595Z,49.26
2022-12-01T12:44:09.996Z,49.25
2022-12-01T12:46:36.437Z,49.42
2022-12-01T12:49:19.095Z,49.05
2022-12-01T12:51:46.424Z,49.13
2022-12-01T12:54:12.976Z,49.24
2022-12-01T12:56:39.423Z,49.14
2022-12-01T12:59:05.796Z,49.30
2022-12-01T13:01:32.263Z,49.09
2022-12-01T13:03:58.751Z,49.13
2022-12-01T13:06:25.134Z,49.33
2022-12-01T13:08:51.516Z,49.07
2022-12-01T13:11:17.887Z,49.27
2022-12-01T13:13:44.273Z,49.10
2022-12-01T13:16:10.697Z,49.10
2022-12-01T13:18:37.101Z,49.14
2022-12-01T13:21:03.591Z,49.12
2022-12-01T13:23:29.964Z,49.38
2022-12-01T13:25:56.335Z,49.10
2022-12-01T13:28:22.720Z,49.16
2022-12-01T13:30:49.128Z,49.20
2022-12-01T13:33:15.581Z,49.02
2022-12-01T13:35:41.968Z,49.40
2022-12-01T13:38:08.365Z,49.58
2022-12-01T13:40:34.746Z,49.18
2022-12-01T13:43:05.494Z,49.19
2022-12-01T13:45:35.199Z,49.21
2022-12-01T13:48:01.566Z,49.22
2022-12-01T13:50:27.979Z,49.15
2022-12-01T13:52:54.368Z,49.30
2022-12-01T13:55:20.761Z,49.18
2022-12-01T13:57:47.146Z,49.13
2022-12-01T14:00:13.642Z,49.09
2022-12-01T14:02:40.282Z,49.17
2022-12-01T14:05:06.841Z,49.11
2022-12-01T14:07:33.295Z,49.00
2022-12-01T14:09:59.725Z,49.07
2022-12-01T14:12:26.106Z,49.27
2022-12-01T14:14:52.535Z,49.11
2022-12-01T14:17:18.912Z,49.11
2022-12-01T14:19:45.299Z,49.12
2022-12-01T14:22:11.678Z,49.14
2022-12-01T14:24:38.078Z,49.11
2022-12-01T14:27:04.458Z,49.24
2022-12-01T14:29:30.846Z,49.09
2022-12-01T14:31:57.218Z,49.23
2022-12-01T14:34:23.612Z,49.14
2022-12-01T14:36:50.000Z,49.12
2022-12-01T14:39:16.379Z,49.05
2022-12-01T14:41:42.757Z,49.04
2022-12-01T14:44:09.156Z,49.01
2022-12-01T14:46:35.600Z,48.99
2022-12-01T14:49:02.015Z,48.91
2022-12-01T14:51:28.397Z,48.92
2022-12-01T14:53:54.812Z,49.08
2022-12-01T14:56:21.202Z,49.05
2022-12-01T14:58:47.574Z,49.17
2022-12-01T15:01:14.056Z,49.05
2022-12-01T15:03:40.510Z,48.38
2022-12-01T15:06:06.885Z,47.69
2022-12-01T15:08:41.953Z,47.26
2022-12-01T15:11:12.570Z,47.72
2022-12-01T15:13:38.938Z,47.71
2022-12-01T15:16:05.347Z,47.92
2022-12-01T15:18:31.753Z,47.90
2022-12-01T15:20:58.138Z,48.16
2022-12-01T15:23:24.516Z,48.23
2022-12-01T15:25:50.898Z,48.20
2022-12-01T15:28:17.301Z,48.36
2022-12-01T15:30:43.670Z,48.38
2022-12-01T15:33:10.061Z,48.38
2022-12-01T15:35:36.452Z,48.34
2022-12-01T15:38:02.819Z,48.32
2022-12-01T15:43:15.566Z,48.23
2022-12-01T15:45:42.006Z,48.50
2022-12-01T15:48:08.490Z,48.30
2022-12-01T15:50:34.872Z,48.50
2022-12-01T15:53:01.256Z,48.49
2022-12-01T15:55:27.661Z,48.45
2022-12-01T15:57:54.038Z,48.52
2022-12-01T16:00:20.407Z,48.61
2022-12-01T16:02:47.067Z,48.37
2022-12-01T16:05:13.517Z,48.49
2022-12-01T16:08:11.590Z,48.46
2022-12-01T16:10:26.342Z,48.30
2022-12-01T16:12:52.742Z,48.42
2022-12-01T16:15:19.110Z,48.65
2022-12-01T16:17:45.505Z,48.76
2022-12-01T16:20:11.892Z,48.56
2022-12-01T16:22:38.272Z,48.46
2022-12-01T16:25:04.656Z,48.71
2022-12-01T16:27:31.058Z,48.63
2022-12-01T16:29:57.453Z,48.58
2022-12-01T16:32:23.893Z,48.39
2022-12-01T16:34:50.355Z,48.74
2022-12-01T16:37:16.744Z,48.49
2022-12-01T16:39:43.203Z,48.66
2022-12-01T16:42:09.659Z,48.44
2022-12-01T16:44:36.070Z,48.48
2022-12-01T16:47:02.447Z,48.49
2022-12-01T16:49:28.832Z,48.37
2022-12-01T16:51:56.838Z,48.45
2022-12-01T16:54:23.886Z,48.49
2022-12-01T16:56:50.363Z,48.60
2022-12-01T16:59:16.762Z,48.64
2022-12-01T17:01:43.211Z,48.47
2022-12-01T17:04:09.669Z,48.60
2022-12-01T17:06:36.038Z,48.35
2022-12-01T17:09:02.413Z,48.60
2022-12-01T17:11:28.805Z,48.55
2022-12-01T17:13:55.190Z,48.38
2022-12-01T17:16:21.625Z,48.53
2022-12-01T17:18:48.075Z,48.49
2022-12-01T17:21:14.450Z,48.58
2022-12-01T17:23:40.867Z,48.63
2022-12-01T17:26:07.263Z,48.52
2022-12-01T17:28:33.651Z,48.36
2022-12-01T17:31:00.135Z,48.46
2022-12-01T17:33:26.575Z,48.50
2022-12-01T17:35:52.946Z,48.46
2022-12-01T17:38:19.334Z,48.25
2022-12-01T17:40:45.703Z,48.55
2022-12-01T17:43:12.074Z,48.42
2022-12-01T17:45:38.439Z,48.38
2022-12-01T17:48:04.802Z,48.37
2022-12-01T17:50:31.189Z,48.30
2022-12-01T17:52:57.573Z,48.53
2022-12-01T17:55:23.952Z,48.45
2022-12-01T17:57:50.315Z,48.46
2022-12-01T18:00:16.702Z,48.43
2022-12-01T18:02:43.138Z,48.19
2022-12-01T18:05:09.617Z,48.35
2022-12-01T18:07:36.132Z,48.38
2022-12-01T18:10:02.583Z,48.35
2022-12-01T18:12:28.988Z,48.37
2022-12-01T18:14:55.360Z,48.25
2022-12-01T18:17:21.730Z,48.51
2022-12-01T18:19:48.110Z,48.42
2022-12-01T18:22:14.511Z,48.34
2022-12-01T18:24:40.897Z,48.31
2022-12-01T18:27:07.294Z,48.35
2022-12-01T18:29:33.673Z,48.42
2022-12-01T18:32:00.056Z,48.49
2022-12-01T18:34:26.431Z,48.30
2022-12-01T18:36:52.818Z,48.40
2022-12-01T18:39:19.209Z,48.38
2022-12-01T18:41:45.592Z,48.31
2022-12-01T18:44:11.984Z,48.39
2022-12-01T18:46:38.466Z,48.27
2022-12-01T18:49:04.918Z,48.26
2022-12-01T18:51:31.315Z,48.38
2022-12-01T18:53:57.715Z,48.14
2022-12-01T18:56:24.107Z,48.24
2022-12-01T18:58:50.489Z,48.26
2022-12-01T19:01:16.888Z,48.29
2022-12-01T19:03:43.289Z,48.30
2022-12-01T19:06:09.658Z,48.20
2022-12-01T19:08:36.050Z,48.04
2022-12-01T19:11:02.421Z,48.46
2022-12-01T19:13:28.822Z,48.51
2022-12-01T19:15:55.247Z,48.33
2022-12-01T19:18:21.643Z,48.25
2022-12-01T19:20:48.045Z,48.23
2022-12-01T19:23:14.447Z,48.34
2022-12-01T19:25:40.819Z,48.40
2022-12-01T19:28:07.186Z,48.38
2022-12-01T19:30:33.564Z,48.54
2022-12-01T19:32:59.953Z,48.24
2022-12-01T19:35:26.352Z,48.17
2022-12-01T19:37:52.728Z,48.23
2022-12-01T19:40:19.133Z,48.36
2022-12-01T19:42:45.545Z,48.40
2022-12-01T19:45:12.010Z,48.23
2022-12-01T19:47:38.395Z,48.34
2022-12-01T19:50:04.851Z,48.24
2022-12-01T19:52:31.242Z,48.17
2022-12-01T19:54:57.619Z,48.25
2022-12-01T19:57:24.004Z,48.23
2022-12-01T19:59:50.389Z,48.17
2022-12-01T20:02:16.816Z,48.17
2022-12-01T20:04:43.318Z,48.19
2022-12-01T20:07:09.723Z,47.96
2022-12-01T20:09:36.103Z,47.98
2022-12-01T20:12:02.491Z,48.20
2022-12-01T20:14:28.855Z,48.32
2022-12-01T20:16:55.325Z,48.29
2022-12-01T20:19:21.810Z,48.49
2022-12-01T20:21:48.198Z,48.58
2022-12-01T20:24:14.567Z,48.54
2022-12-01T20:26:40.949Z,48.71
2022-12-01T20:29:07.324Z,48.67
2022-12-01T20:31:33.769Z,48.71
2022-12-01T20:34:00.176Z,48.60
2022-12-01T20:36:26.573Z,48.67
2022-12-01T20:38:52.970Z,48.62
2022-12-01T20:41:19.359Z,48.74
2022-12-01T20:43:45.734Z,49.06
2022-12-01T20:46:12.149Z,48.94
2022-12-01T20:48:38.591Z,48.81
2022-12-01T20:51:04.988Z,49.30
2022-12-01T20:53:31.379Z,49.10
2022-12-01T20:55:57.747Z,49.06
2022-12-01T20:58:24.130Z,49.03
2022-12-01T21:00:50.554Z,48.93
2022-12-01T21:03:16.959Z,48.95
2022-12-01T21:05:43.334Z,48.87
2022-12-01T21:08:09.761Z,48.92
2022-12-01T21:10:36.262Z,49.12
2022-12-01T21:13:02.630Z,49.12
2022-12-01T21:15:29.012Z,48.96
2022-12-01T21:17:55.398Z,49.15
2022-12-01T21:20:21.897Z,49.10
2022-12-01T21:22:48.455Z,48.93
2022-12-01T21:25:14.941Z,49.11
2022-12-01T21:27:41.327Z,48.96
2022-12-01T21:30:07.704Z,49.17
2022-12-01T21:32:34.086Z,49.01
2022-12-01T21:35:00.476Z,49.06
2022-12-01T21:37:26.855Z,49.32
2022-12-01T21:39:53.232Z,49.10
2022-12-01T21:42:19.624Z,49.37
2022-12-01T21:44:45.999Z,49.20
2022-12-01T21:47:12.380Z,49.22
2022-12-01T21:49:38.766Z,49.11
2022-12-01T21:52:05.154Z,49.15
2022-12-01T21:54:31.523Z,49.05
2022-12-01T21:56:57.900Z,49.15
2022-12-01T21:59:24.259Z,49.01
2022-12-01T22:01:50.700Z,48.95
2022-12-01T22:04:17.114Z,49.22
2022-12-01T22:06:43.481Z,49.17
2022-12-01T22:09:09.851Z,49.07
2022-12-01T22:11:36.235Z,49.13
2022-12-01T22:14:02.624Z,49.05
2022-12-01T22:16:29.005Z,49.05
2022-12-01T22:18:55.402Z,49.06
2022-12-01T22:21:21.790Z,49.17
2022-12-01T22:23:48.176Z,49.07
2022-12-01T22:26:14.561Z,49.22
2022-12-01T22:28:40.970Z,48.93
2022-12-01T22:31:07.349Z,48.97
2022-12-01T22:33:33.775Z,48.98
2022-12-01T22:36:00.171Z,49.24
2022-12-01T22:38:26.559Z,49.20
2022-12-01T22:40:52.943Z,49.13
2022-12-01T22:43:19.337Z,49.27
2022-12-01T22:45:45.719Z,49.05
2022-12-01T22:48:12.100Z,48.85
2022-12-01T22:50:38.482Z,48.74
2022-12-01T22:53:04.869Z,48.41
2022-12-01T22:55:31.241Z,48.73
2022-12-01T22:57:57.613Z,48.68
2022-12-01T23:00:24.012Z,48.96
2022-12-01T23:02:50.447Z,48.51
2022-12-01T23:05:16.891Z,48.50
2022-12-01T23:07:43.307Z,48.55
2022-12-01T23:10:09.731Z,48.52
2022-12-01T23:12:36.122Z,48.83
2022-12-01T23:15:02.523Z,48.96
2022-12-01T23:17:28.892Z,48.83
2022-12-01T23:19:55.291Z,48.67
2022-12-01T23:22:21.660Z,48.62
2022-12-01T23:24:48.247Z,48.32
2022-12-01T23:27:14.882Z,48.51
2022-12-01T23:29:41.251Z,48.36
2022-12-01T23:32:07.641Z,48.50
2022-12-01T23:34:34.078Z,48.34
2022-12-01T23:37:00.469Z,48.27
2022-12-01T23:39:26.866Z,48.34
2022-12-01T23:41:53.252Z,47.99
2022-12-01T23:44:19.660Z,48.26
2022-12-01T23:46:46.120Z,48.19
2022-12-01T23:49:12.566Z,48.05
2022-12-01T23:51:38.962Z,47.85
2022-12-01T23:54:05.347Z,47.71
2022-12-01T23:56:31.711Z,48.11
2022-12-01T23:58:58.094Z,48.36
